Time;durP1;ratioP1;P1;durP2;ratioP2;P2;SDS_P1;SDS_P2;PMS_P1;PMS_P2;Temp;Humidity;BMP_temperature;BMP_pressure;BME280_temperature;BME280_humidity;BME280_pressure;Samples;Min_cycle;Max_cycle;Signal;HPM_P1;HPM_P2
2021/01/14 00:02:22;;;;;;;1.60;1.23;;;1.30;99.90;;;;;;4950627;29;20537;-61
2021/01/14 00:04:48;;;;;;;1.03;0.87;;;1.30;99.90;;;;;;4951735;29;20858;-61
2021/01/14 00:07:14;;;;;;;3.50;1.50;;;1.30;99.90;;;;;;4952199;29;20786;-61
2021/01/14 00:09:41;;;;;;;2.07;1.60;;;1.30;99.90;;;;;;4952660;29;20547;-62
2021/01/14 00:12:07;;;;;;;4.17;1.50;;;1.30;99.90;;;;;;4969674;29;20507;-61
2021/01/14 00:14:34;;;;;;;2.77;1.43;;;1.30;99.90;;;;;;4969751;29;20852;-62
2021/01/14 00:17:01;;;;;;;3.90;1.90;;;1.20;99.90;;;;;;4971342;29;20463;-61
2021/01/14 00:19:27;;;;;;;1.30;1.20;;;1.10;99.90;;;;;;4960920;29;20488;-61
2021/01/14 00:21:54;;;;;;;5.77;2.10;;;1.10;99.90;;;;;;4952660;29;20449;-60
2021/01/14 00:24:20;;;;;;;2.13;1.47;;;1.00;99.90;;;;;;4957854;29;20484;-60
2021/01/14 00:26:47;;;;;;;3.30;2.40;;;1.00;99.90;;;;;;4956054;29;20449;-61
2021/01/14 00:29:13;;;;;;;1.97;1.40;;;1.00;99.90;;;;;;4961993;29;20510;-61
2021/01/14 00:31:41;;;;;;;4.23;2.00;;;0.90;99.90;;;;;;4963969;29;20488;-61
2021/01/14 00:34:07;;;;;;;3.40;1.80;;;1.00;99.90;;;;;;4961248;29;20461;-61
2021/01/14 00:37:50;;;;;;;4.60;2.30;;;1.00;99.90;;;;;;4960713;29;20441;-62
2021/01/14 00:39:21;;;;;;;11.23;2.03;;;0.90;99.90;;;;;;4962623;29;20519;-61
2021/01/14 00:41:47;;;;;;;3.90;1.90;;;0.90;99.90;;;;;;4950079;29;20444;-61
2021/01/14 00:44:14;;;;;;;2.37;1.60;;;0.80;99.90;;;;;;4950702;29;21051;-61
2021/01/14 00:46:41;;;;;;;2.50;2.27;;;0.80;99.90;;;;;;4940189;29;20911;-62
2021/01/14 00:49:07;;;;;;;2.63;1.40;;;0.80;99.90;;;;;;4945086;29;20457;-61
2021/01/14 00:51:35;;;;;;;3.13;1.87;;;0.90;99.90;;;;;;4953573;29;20463;-61
2021/01/14 00:54:01;;;;;;;3.10;1.87;;;0.90;99.90;;;;;;4959384;29;20578;-61
2021/01/14 00:56:32;;;;;;;4.10;2.83;;;1.00;99.90;;;;;;4967140;29;20448;-62
2021/01/14 00:58:59;;;;;;;3.87;2.30;;;1.10;99.90;;;;;;4970820;29;20443;-62
2021/01/14 01:01:25;;;;;;;1.60;1.47;;;1.10;99.90;;;;;;4971687;28;20448;-61
2021/01/14 01:03:53;;;;;;;1.83;1.60;;;1.10;99.90;;;;;;4960569;29;20491;-61
2021/01/14 01:06:20;;;;;;;1.97;1.50;;;1.10;99.90;;;;;;4954002;29;20512;-61
2021/01/14 01:08:50;;;;;;;1.43;1.33;;;1.10;99.90;;;;;;4958494;29;20448;-61
2021/01/14 01:11:24;;;;;;;1.83;1.70;;;1.10;99.90;;;;;;4973032;29;20499;-61
2021/01/14 01:13:50;;;;;;;2.97;1.60;;;1.10;99.90;;;;;;4971868;29;20482;-61
2021/01/14 01:16:17;;;;;;;1.90;1.60;;;1.10;99.90;;;;;;4955584;29;20492;-61
2021/01/14 01:18:43;;;;;;;1.93;1.50;;;1.10;99.90;;;;;;4970291;29;20499;-61
2021/01/14 01:21:11;;;;;;;3.10;1.97;;;1.10;99.90;;;;;;4968912;29;20492;-62
2021/01/14 01:23:37;;;;;;;1.97;1.67;;;1.10;99.90;;;;;;4968555;29;20455;-61
2021/01/14 01:26:04;;;;;;;5.47;1.90;;;1.20;99.90;;;;;;4951301;29;20523;-60
2021/01/14 01:28:30;;;;;;;1.63;1.20;;;1.30;99.90;;;;;;4947455;29;20519;-61
2021/01/14 01:30:56;;;;;;;2.73;1.73;;;1.30;99.90;;;;;;4953757;29;20586;-61
2021/01/14 01:33:25;;;;;;;2.90;2.10;;;1.30;99.90;;;;;;4949639;29;20532;-61
2021/01/14 01:35:52;;;;;;;1.80;1.40;;;1.30;99.90;;;;;;4970390;29;20914;-61
2021/01/14 01:38:20;;;;;;;3.63;2.90;;;1.30;99.90;;;;;;4974066;29;20479;-61
2021/01/14 01:40:54;;;;;;;1.83;1.27;;;1.40;99.90;;;;;;4974139;29;20526;-61
2021/01/14 01:43:20;;;;;;;2.83;1.60;;;1.50;99.90;;;;;;4976043;29;20458;-62
2021/01/14 01:45:47;;;;;;;1.73;1.10;;;1.50;99.90;;;;;;4975362;29;20447;-61
2021/01/14 01:48:14;;;;;;;2.07;1.23;;;1.50;99.90;;;;;;4973288;29;20475;-61
2021/01/14 01:50:40;;;;;;;2.93;1.70;;;1.60;99.90;;;;;;4962124;29;20508;-62
2021/01/14 01:53:07;;;;;;;1.57;1.47;;;1.60;99.90;;;;;;4928591;29;726382;-62
2021/01/14 01:55:35;;;;;;;1.93;1.23;;;1.60;99.90;;;;;;4955692;29;20224;-62
2021/01/14 01:58:02;;;;;;;2.13;1.30;;;1.60;99.90;;;;;;4955098;29;20500;-62
2021/01/14 02:00:28;;;;;;;1.00;0.90;;;1.70;99.90;;;;;;4954823;29;20544;-62
2021/01/14 02:02:54;;;;;;;1.83;1.03;;;1.70;99.90;;;;;;4954221;29;20448;-60
2021/01/14 02:05:21;;;;;;;1.30;0.97;;;1.70;99.90;;;;;;4965222;29;20502;-62
2021/01/14 02:07:59;;;;;;;1.03;0.90;;;1.80;99.90;;;;;;4977860;29;20468;-61
2021/01/14 02:10:32;;;;;;;1.67;1.00;;;1.80;99.90;;;;;;4978293;29;20499;-61
2021/01/14 02:13:11;;;;;;;3.10;1.40;;;1.90;99.90;;;;;;4977740;28;20432;-61
2021/01/14 02:15:39;;;;;;;1.80;1.17;;;2.00;99.90;;;;;;4978153;29;20472;-62
2021/01/14 02:18:08;;;;;;;1.80;1.17;;;2.00;99.90;;;;;;4978718;29;20479;-63
2021/01/14 02:20:35;;;;;;;1.33;1.23;;;2.10;99.90;;;;;;4978418;29;20463;-62
2021/01/14 02:23:08;;;;;;;1.20;0.87;;;2.00;99.90;;;;;;4977527;29;20456;-61
2021/01/14 02:25:46;;;;;;;1.20;0.90;;;2.00;99.90;;;;;;4977561;29;20456;-62
2021/01/14 02:28:13;;;;;;;1.63;0.90;;;2.00;99.90;;;;;;4976705;29;20447;-61
2021/01/14 02:30:40;;;;;;;0.87;0.70;;;2.00;99.90;;;;;;4976954;29;20494;-61
2021/01/14 02:33:12;;;;;;;1.50;1.00;;;2.10;99.90;;;;;;4977166;29;20451;-60
2021/01/14 02:35:38;;;;;;;1.00;0.83;;;2.10;99.90;;;;;;4965834;29;20460;-61
2021/01/14 02:38:05;;;;;;;0.93;0.83;;;2.10;99.90;;;;;;4957780;29;20477;-60
2021/01/14 02:40:31;;;;;;;1.20;0.90;;;2.00;99.90;;;;;;4966980;29;20448;-61
2021/01/14 02:42:58;;;;;;;0.97;0.80;;;2.10;99.90;;;;;;4976976;29;20847;-61
2021/01/14 02:45:25;;;;;;;1.40;1.27;;;2.10;99.90;;;;;;4968668;29;20480;-60
2021/01/14 02:47:52;;;;;;;1.70;1.27;;;2.10;99.90;;;;;;4957607;29;20479;-61
2021/01/14 02:50:19;;;;;;;1.70;1.23;;;2.20;99.90;;;;;;4963704;29;20475;-60
2021/01/14 02:52:48;;;;;;;1.87;1.20;;;2.30;99.90;;;;;;4976603;29;20503;-60
2021/01/14 02:55:14;;;;;;;3.63;1.40;;;2.30;99.90;;;;;;4976787;29;20435;-61
2021/01/14 02:57:44;;;;;;;1.93;1.43;;;2.30;99.90;;;;;;4976186;29;20439;-61
2021/01/14 03:00:13;;;;;;;2.50;1.17;;;2.30;99.90;;;;;;4962714;29;20928;-61
2021/01/14 03:02:40;;;;;;;1.60;1.50;;;2.30;99.90;;;;;;4956985;29;20440;-61
2021/01/14 03:05:07;;;;;;;1.77;1.43;;;2.30;99.90;;;;;;4957251;29;20472;-61
2021/01/14 03:07:33;;;;;;;1.63;1.37;;;2.30;99.90;;;;;;4960008;29;20476;-61
2021/01/14 03:10:00;;;;;;;2.10;1.47;;;2.30;99.90;;;;;;4977669;29;20515;-62
2021/01/14 03:12:26;;;;;;;2.50;1.30;;;2.30;99.90;;;;;;4977458;29;20486;-60
2021/01/14 03:14:53;;;;;;;2.10;1.90;;;2.30;99.90;;;;;;4977643;29;20443;-61
2021/01/14 03:17:20;;;;;;;2.67;1.70;;;2.30;99.90;;;;;;4964513;29;20449;-61
2021/01/14 03:19:47;;;;;;;1.93;1.30;;;2.30;99.90;;;;;;4957782;29;20441;-62
2021/01/14 03:22:13;;;;;;;2.27;1.57;;;2.40;99.90;;;;;;4958410;29;20441;-61
2021/01/14 03:24:40;;;;;;;2.43;2.23;;;2.40;99.90;;;;;;4959445;29;20483;-62
2021/01/14 03:27:06;;;;;;;1.97;1.57;;;2.40;99.90;;;;;;4960944;29;20444;-61
2021/01/14 03:29:33;;;;;;;4.30;2.00;;;2.40;99.90;;;;;;4961210;29;20461;-61
2021/01/14 03:32:01;;;;;;;2.50;1.67;;;2.40;99.90;;;;;;4961157;29;20435;-61
2021/01/14 03:34:28;;;;;;;2.80;2.40;;;2.40;99.90;;;;;;4961437;29;20433;-61
2021/01/14 03:36:57;;;;;;;1.63;1.50;;;2.40;99.90;;;;;;4960939;29;20484;-61
2021/01/14 03:39:25;;;;;;;4.23;2.00;;;2.40;99.90;;;;;;4961066;29;20436;-61
2021/01/14 03:41:52;;;;;;;3.20;2.10;;;2.50;99.90;;;;;;4961182;29;20437;-61
2021/01/14 03:44:18;;;;;;;2.33;1.60;;;2.50;99.90;;;;;;4959667;29;20440;-60
2021/01/14 03:46:49;;;;;;;2.37;1.83;;;2.50;99.90;;;;;;4960534;29;20472;-60
2021/01/14 03:49:15;;;;;;;2.50;2.27;;;2.50;99.90;;;;;;4960674;29;20472;-60
2021/01/14 03:51:44;;;;;;;2.87;2.57;;;2.60;99.90;;;;;;4960378;29;20544;-60
2021/01/14 03:54:11;;;;;;;2.53;2.03;;;2.60;99.90;;;;;;4960824;29;20483;-61
2021/01/14 03:56:38;;;;;;;2.60;2.13;;;2.60;99.90;;;;;;4960710;29;20472;-60
2021/01/14 03:59:05;;;;;;;4.57;2.23;;;2.50;99.90;;;;;;4960384;29;20473;-60
2021/01/14 04:01:31;;;;;;;3.60;2.47;;;2.50;99.90;;;;;;4960413;29;20472;-60
2021/01/14 04:03:57;;;;;;;4.60;1.70;;;2.50;99.90;;;;;;4960214;29;20436;-61
2021/01/14 04:06:30;;;;;;;3.67;2.20;;;2.50;99.90;;;;;;4959962;29;20448;-61
2021/01/14 04:08:59;;;;;;;3.17;2.13;;;2.50;99.90;;;;;;4960044;29;20541;-61
2021/01/14 04:11:26;;;;;;;4.20;2.60;;;2.50;99.90;;;;;;4979111;29;20479;-61
2021/01/14 04:13:52;;;;;;;4.80;2.50;;;2.50;99.90;;;;;;4979179;29;20471;-61
2021/01/14 04:16:19;;;;;;;6.57;3.23;;;2.50;99.90;;;;;;4961954;29;21014;-61
2021/01/14 04:18:45;;;;;;;3.80;2.60;;;2.50;99.90;;;;;;4960587;29;20444;-61
2021/01/14 04:21:13;;;;;;;4.20;2.60;;;2.40;99.90;;;;;;4972590;29;20442;-61
2021/01/14 04:23:40;;;;;;;5.23;2.83;;;2.50;99.90;;;;;;4960143;29;20472;-60
2021/01/14 04:26:07;;;;;;;3.33;2.40;;;2.50;99.90;;;;;;4959771;29;20508;-61
2021/01/14 04:28:33;;;;;;;3.50;2.80;;;2.50;99.90;;;;;;4959356;29;20468;-61
2021/01/14 04:31:00;;;;;;;4.60;2.63;;;2.50;99.90;;;;;;4974873;29;20499;-62
2021/01/14 04:33:26;;;;;;;3.50;3.20;;;2.60;99.90;;;;;;4978839;29;20519;-61
2021/01/14 04:35:56;;;;;;;4.20;3.00;;;2.60;99.90;;;;;;4964251;29;20489;-61
2021/01/14 04:38:24;;;;;;;6.50;3.70;;;2.60;99.90;;;;;;4959837;29;20456;-62
2021/01/14 04:40:58;;;;;;;3.33;2.90;;;2.60;99.90;;;;;;4973464;29;20444;-62
2021/01/14 04:43:27;;;;;;;3.40;2.30;;;2.60;99.90;;;;;;4971573;29;20492;-62
2021/01/14 04:45:55;;;;;;;4.43;3.47;;;2.60;99.90;;;;;;4959826;29;20445;-62
2021/01/14 04:48:23;;;;;;;5.03;3.70;;;2.60;99.90;;;;;;4951625;29;20429;-62
2021/01/14 04:50:54;;;;;;;3.70;2.60;;;2.60;99.90;;;;;;5423697;23;20471;-61
2021/01/14 04:53:21;;;;;;;5.60;3.40;;;2.70;99.90;;;;;;5123778;23;20518;-62
2021/01/14 04:55:48;;;;;;;6.57;3.63;;;2.70;99.90;;;;;;4997701;28;20481;-62
2021/01/14 04:58:17;;;;;;;6.03;3.70;;;2.70;99.90;;;;;;4997297;28;20454;-61
2021/01/14 05:00:49;;;;;;;8.20;3.20;;;2.60;99.90;;;;;;4997546;28;20858;-62
2021/01/14 05:03:21;;;;;;;7.20;3.53;;;2.60;99.90;;;;;;4997559;28;20522;-62
2021/01/14 05:05:49;;;;;;;7.90;3.93;;;2.60;99.90;;;;;;4983955;28;20878;-62
2021/01/14 05:08:16;;;;;;;4.73;3.87;;;2.60;99.90;;;;;;4978245;29;20435;-62
2021/01/14 05:10:44;;;;;;;6.80;4.37;;;2.60;99.90;;;;;;4991196;28;20474;-62
2021/01/14 05:13:11;;;;;;;10.30;4.87;;;2.70;99.90;;;;;;4997551;28;20458;-62
2021/01/14 05:15:39;;;;;;;7.43;4.57;;;2.60;99.90;;;;;;4996945;28;20514;-62
2021/01/14 05:18:06;;;;;;;9.90;4.73;;;2.70;99.90;;;;;;4996628;28;20477;-61
2021/01/14 05:20:33;;;;;;;7.27;4.87;;;2.70;99.90;;;;;;4996733;28;20458;-62
2021/01/14 05:23:00;;;;;;;9.90;4.63;;;2.70;99.90;;;;;;4997162;28;20557;-61
2021/01/14 05:25:27;;;;;;;6.13;3.83;;;2.70;99.90;;;;;;4996152;28;20478;-61
2021/01/14 05:27:54;;;;;;;7.40;4.50;;;2.80;99.90;;;;;;4997782;28;20450;-62
2021/01/14 05:30:22;;;;;;;7.87;4.97;;;2.80;99.90;;;;;;4997230;28;20550;-62
2021/01/14 05:32:49;;;;;;;7.93;3.87;;;2.80;99.90;;;;;;4997528;28;20435;-62
2021/01/14 05:35:27;;;;;;;6.97;4.30;;;2.80;99.90;;;;;;4984973;28;20517;-62
2021/01/14 05:38:00;;;;;;;7.30;4.87;;;2.80;99.90;;;;;;4977480;29;20448;-61
2021/01/14 05:40:28;;;;;;;10.63;5.97;;;2.80;99.90;;;;;;4969959;29;20436;-61
2021/01/14 05:43:04;;;;;;;11.80;5.40;;;2.70;99.90;;;;;;4977542;29;20458;-61
2021/01/14 05:45:31;;;;;;;9.13;5.80;;;2.80;99.90;;;;;;4990181;28;20454;-61
2021/01/14 05:48:08;;;;;;;8.57;6.27;;;2.70;99.90;;;;;;4961144;28;20898;-60
2021/01/14 05:50:43;;;;;;;11.07;5.57;;;2.70;99.90;;;;;;4956775;28;20497;-61
2021/01/14 05:53:14;;;;;;;10.60;7.10;;;2.80;99.90;;;;;;4956147;29;20490;-61
2021/01/14 05:55:43;;;;;;;15.60;7.70;;;2.80;99.90;;;;;;4969241;28;20455;-61
2021/01/14 05:58:18;;;;;;;10.63;6.10;;;2.80;99.90;;;;;;4975489;28;20450;-61
2021/01/14 06:00:45;;;;;;;11.73;5.93;;;2.80;99.90;;;;;;4962766;28;20515;-61
2021/01/14 06:03:26;;;;;;;12.07;7.20;;;2.80;99.90;;;;;;4956507;29;20553;-61
2021/01/14 06:05:54;;;;;;;13.50;6.13;;;2.80;99.90;;;;;;4956634;28;20546;-61
2021/01/14 06:08:25;;;;;;;10.40;6.47;;;2.80;99.90;;;;;;4956361;29;20546;-61
2021/01/14 06:10:52;;;;;;;9.87;5.97;;;2.70;99.90;;;;;;4956328;28;20480;-62
2021/01/14 06:13:19;;;;;;;14.83;7.43;;;2.80;99.90;;;;;;4956122;29;20534;-62
2021/01/14 06:15:58;;;;;;;13.37;6.30;;;2.80;99.90;;;;;;4967094;28;21093;-61
2021/01/14 06:18:25;;;;;;;12.43;6.73;;;2.80;99.90;;;;;;4975364;28;20450;-61
2021/01/14 06:20:52;;;;;;;8.80;7.10;;;2.90;99.90;;;;;;4964176;28;20444;-62
2021/01/14 06:23:22;;;;;;;11.30;5.57;;;2.90;99.90;;;;;;4956088;29;20463;-62
2021/01/14 06:25:49;;;;;;;12.87;6.90;;;2.90;99.90;;;;;;4968157;28;21009;-62
2021/01/14 06:28:17;;;;;;;10.57;6.23;;;2.90;99.90;;;;;;4975484;28;20455;-61
2021/01/14 06:30:58;;;;;;;11.87;6.90;;;2.90;99.90;;;;;;4962352;28;21189;-61
2021/01/14 06:33:25;;;;;;;11.93;7.43;;;3.00;99.90;;;;;;4955869;29;20506;-62
2021/01/14 06:36:07;;;;;;;15.00;7.33;;;3.00;99.90;;;;;;4956133;28;20462;-62
2021/01/14 06:38:43;;;;;;;16.10;7.97;;;3.00;99.90;;;;;;4956099;29;20465;-62
2021/01/14 06:41:15;;;;;;;13.43;6.23;;;3.00;99.90;;;;;;4972676;28;20542;-62
2021/01/14 06:43:43;;;;;;;10.57;5.30;;;3.00;99.90;;;;;;4975152;28;20812;-61
2021/01/14 06:46:16;;;;;;;10.53;6.67;;;3.00;99.90;;;;;;4958012;28;20856;-62
2021/01/14 06:49:00;;;;;;;11.00;6.10;;;3.10;99.90;;;;;;4955763;29;20523;-61
2021/01/14 06:52:05;;;;;;;12.17;6.13;;;3.10;99.90;;;;;;4974072;28;20491;-61
2021/01/14 06:54:39;;;;;;;10.73;6.33;;;3.00;99.90;;;;;;4968467;28;20485;-61
2021/01/14 06:57:14;;;;;;;9.47;5.70;;;3.00;99.90;;;;;;4955679;29;20451;-61
2021/01/14 06:59:41;;;;;;;9.70;5.27;;;2.90;99.90;;;;;;4960036;28;20937;-61
2021/01/14 07:02:49;;;;;;;12.83;6.97;;;2.90;99.90;;;;;;4979168;28;20478;-61
2021/01/14 07:05:23;;;;;;;12.80;6.27;;;3.00;99.90;;;;;;4965853;28;20583;-62
2021/01/14 07:08:01;;;;;;;9.37;5.63;;;3.00;99.90;;;;;;4959423;29;20471;-61
2021/01/14 07:10:32;;;;;;;9.23;5.50;;;3.00;99.90;;;;;;4967487;28;20481;-61
2021/01/14 07:13:03;;;;;;;12.63;5.40;;;3.00;99.90;;;;;;4978822;28;20524;-62
2021/01/14 07:15:35;;;;;;;7.97;5.43;;;3.00;99.90;;;;;;4970977;28;20498;-61
2021/01/14 07:18:03;;;;;;;10.87;6.30;;;3.00;99.90;;;;;;4962569;28;20918;-61
2021/01/14 07:20:31;;;;;;;9.57;6.23;;;3.00;99.90;;;;;;4976606;28;20771;-61
2021/01/14 07:23:01;;;;;;;8.30;5.90;;;3.00;99.90;;;;;;4961321;28;20788;-61
2021/01/14 07:25:29;;;;;;;9.63;5.73;;;3.00;99.90;;;;;;4960183;28;20448;-61
2021/01/14 07:27:55;;;;;;;11.00;6.00;;;3.00;99.90;;;;;;4959067;29;20452;-62
2021/01/14 07:30:22;;;;;;;10.57;5.10;;;3.00;99.90;;;;;;4956032;28;20574;-62
2021/01/14 07:32:56;;;;;;;7.27;4.83;;;2.90;99.90;;;;;;4958993;29;20921;-62
2021/01/14 07:35:37;;;;;;;8.10;5.37;;;3.00;99.90;;;;;;4973518;28;20438;-62
2021/01/14 07:38:04;;;;;;;10.80;5.97;;;3.00;99.90;;;;;;4978174;28;20473;-62
2021/01/14 07:40:33;;;;;;;6.90;4.43;;;3.00;99.90;;;;;;4962848;28;20551;-63
2021/01/14 07:43:02;;;;;;;10.23;5.63;;;3.00;99.90;;;;;;4958693;29;20534;-62
2021/01/14 07:45:29;;;;;;;7.23;4.83;;;3.00;99.90;;;;;;4973189;28;20479;-62
2021/01/14 07:47:56;;;;;;;6.90;4.70;;;3.00;99.90;;;;;;4978300;28;20553;-61
2021/01/14 07:50:24;;;;;;;6.30;4.53;;;3.00;99.90;;;;;;4963622;28;20471;-61
2021/01/14 07:52:52;;;;;;;6.90;5.30;;;3.00;99.90;;;;;;4958686;29;20479;-61
2021/01/14 07:55:25;;;;;;;14.60;6.33;;;3.00;99.90;;;;;;4971146;28;20557;-61
2021/01/14 07:58:03;;;;;;;7.37;4.40;;;3.00;99.90;;;;;;4978322;28;21271;-61
2021/01/14 08:00:30;;;;;;;9.23;5.40;;;2.90;99.90;;;;;;4963060;28;20502;-61
2021/01/14 08:03:10;;;;;;;8.30;6.00;;;3.00;99.90;;;;;;4958585;29;20447;-61
2021/01/14 08:05:44;;;;;;;8.67;5.40;;;3.00;99.90;;;;;;4965408;28;20550;-61
2021/01/14 08:08:35;;;;;;;14.37;5.47;;;3.10;99.90;;;;;;4958363;29;20958;-62
2021/01/14 08:11:26;;;;;;;15.53;5.80;;;3.10;99.90;;;;;;4958247;28;20570;-62
2021/01/14 08:14:11;;;;;;;6.53;4.77;;;3.10;99.90;;;;;;4944409;28;20547;-62
2021/01/14 08:16:39;;;;;;;13.97;5.50;;;3.10;99.90;;;;;;4977619;28;20934;-62
2021/01/14 08:19:16;;;;;;;8.30;4.70;;;3.10;99.90;;;;;;4975299;28;20871;-61
2021/01/14 08:21:43;;;;;;;14.30;4.20;;;3.10;99.90;;;;;;4958369;29;20451;-62
2021/01/14 08:24:11;;;;;;;16.33;4.87;;;3.10;99.90;;;;;;4962127;28;20938;-62
2021/01/14 08:26:54;;;;;;;7.20;4.90;;;3.10;99.90;;;;;;4976443;28;20451;-62
2021/01/14 08:29:31;;;;;;;7.07;4.40;;;3.00;99.90;;;;;;4971701;28;20487;-62
2021/01/14 08:31:58;;;;;;;9.33;5.30;;;3.10;99.90;;;;;;4958607;28;20960;-62
2021/01/14 08:34:26;;;;;;;7.50;4.50;;;3.10;99.90;;;;;;4958487;28;20466;-60
2021/01/14 08:36:56;;;;;;;10.33;5.13;;;3.20;99.90;;;;;;4957905;29;20479;-60
2021/01/14 08:39:25;;;;;;;8.43;4.93;;;3.10;99.90;;;;;;4962068;28;20966;-61
2021/01/14 08:41:52;;;;;;;7.57;4.97;;;3.20;99.90;;;;;;4977266;28;20462;-61
2021/01/14 08:44:23;;;;;;;12.20;4.47;;;3.20;99.90;;;;;;4976547;28;20466;-60
2021/01/14 08:46:52;;;;;;;13.43;4.70;;;3.30;99.90;;;;;;4977005;28;20776;-60
2021/01/14 08:49:19;;;;;;;10.83;4.50;;;3.20;99.90;;;;;;4972986;28;20857;-60
2021/01/14 08:51:46;;;;;;;8.27;4.43;;;3.30;99.90;;;;;;4957247;29;20479;-61
2021/01/14 08:54:12;;;;;;;3.80;3.13;;;3.40;99.90;;;;;;4960290;28;20455;-61
2021/01/14 08:56:40;;;;;;;8.10;4.07;;;3.30;99.90;;;;;;4971326;28;20868;-60
2021/01/14 08:59:14;;;;;;;6.57;3.50;;;3.30;99.90;;;;;;4975265;28;20849;-62
2021/01/14 09:01:41;;;;;;;6.20;3.40;;;3.30;99.90;;;;;;4957395;29;20448;-61
2021/01/14 09:04:10;;;;;;;4.80;3.30;;;3.40;99.90;;;;;;4959525;28;20753;-60
2021/01/14 09:06:38;;;;;;;5.53;3.30;;;3.50;99.90;;;;;;4974784;28;20473;-60
2021/01/14 09:09:06;;;;;;;4.43;3.63;;;3.60;99.90;;;;;;4971284;28;20451;-61
2021/01/14 09:11:34;;;;;;;4.90;3.60;;;3.60;99.90;;;;;;4961848;28;20483;-60
2021/01/14 09:14:02;;;;;;;4.60;2.70;;;3.60;99.90;;;;;;4974600;28;20559;-59
2021/01/14 09:16:28;;;;;;;7.97;3.43;;;3.60;99.90;;;;;;4971743;28;20846;-63
2021/01/14 09:18:55;;;;;;;7.73;2.73;;;3.60;99.90;;;;;;4976514;28;20459;-61
2021/01/14 09:21:23;;;;;;;15.30;6.10;;;3.70;99.90;;;;;;4968552;28;20475;-61
2021/01/14 09:23:49;;;;;;;7.70;3.90;;;3.80;99.90;;;;;;4968542;28;20459;-62
2021/01/14 09:26:18;;;;;;;5.10;4.57;;;3.80;99.90;;;;;;4963684;28;20603;-63
2021/01/14 09:28:48;;;;;;;3.57;3.27;;;3.90;99.90;;;;;;4971851;28;20484;-62
2021/01/14 09:31:16;;;;;;;5.67;2.77;;;3.90;99.90;;;;;;4973639;28;20518;-61
2021/01/14 09:33:44;;;;;;;4.87;3.03;;;3.90;99.90;;;;;;4980991;28;20836;-61
2021/01/14 09:36:12;;;;;;;7.63;2.50;;;3.90;99.90;;;;;;4982839;28;20494;-60
2021/01/14 09:38:48;;;;;;;4.37;2.70;;;3.90;99.90;;;;;;4989924;28;20458;-61
2021/01/14 09:41:26;;;;;;;4.13;2.60;;;4.00;99.90;;;;;;4987296;28;20492;-62
2021/01/14 09:43:58;;;;;;;3.83;2.63;;;4.00;99.90;;;;;;4981229;28;20457;-62
2021/01/14 09:46:26;;;;;;;5.70;3.20;;;4.00;99.90;;;;;;4974636;28;20779;-61
2021/01/14 09:48:58;;;;;;;4.57;2.13;;;4.00;99.90;;;;;;4971220;28;20494;-62
2021/01/14 09:51:25;;;;;;;2.97;2.40;;;4.00;99.90;;;;;;4981942;28;20489;-62
2021/01/14 09:53:52;;;;;;;3.70;2.53;;;4.00;99.90;;;;;;4981366;28;20502;-62
2021/01/14 09:56:28;;;;;;;3.00;2.70;;;4.00;99.90;;;;;;4980997;28;20822;-61
2021/01/14 09:58:58;;;;;;;3.90;2.43;;;4.00;99.90;;;;;;4982208;28;20450;-62
2021/01/14 10:01:30;;;;;;;4.07;3.00;;;3.90;99.90;;;;;;4984987;28;20459;-61
2021/01/14 10:04:05;;;;;;;7.70;3.10;;;3.90;99.90;;;;;;4978339;28;20459;-62
2021/01/14 10:06:35;;;;;;;6.07;3.30;;;3.90;99.90;;;;;;4962004;29;20480;-61
2021/01/14 10:09:04;;;;;;;4.77;3.00;;;4.00;99.90;;;;;;4970954;28;20953;-62
2021/01/14 10:11:31;;;;;;;5.60;4.00;;;4.00;99.90;;;;;;4992039;28;20470;-61
2021/01/14 10:13:58;;;;;;;6.20;4.00;;;3.90;99.90;;;;;;4992586;28;20446;-59
2021/01/14 10:16:24;;;;;;;3.90;3.40;;;3.90;99.90;;;;;;4984198;28;20458;-61
2021/01/14 10:19:11;;;;;;;4.23;3.17;;;3.90;99.90;;;;;;4968714;28;20478;-61
2021/01/14 10:21:39;;;;;;;6.93;5.10;;;3.90;99.90;;;;;;4974923;28;20439;-61
2021/01/14 10:24:19;;;;;;;6.57;3.73;;;4.00;99.90;;;;;;4971365;28;20473;-61
2021/01/14 10:26:46;;;;;;;13.93;4.90;;;4.10;99.90;;;;;;4970195;28;20930;-61
2021/01/14 10:29:29;;;;;;;4.70;3.77;;;4.30;99.90;;;;;;4979957;28;20447;-61
2021/01/14 10:32:01;;;;;;;7.00;4.30;;;4.40;99.90;;;;;;4967598;28;20474;-62
2021/01/14 10:34:41;;;;;;;5.80;4.53;;;4.50;99.90;;;;;;4980257;28;20427;-61
2021/01/14 10:37:18;;;;;;;9.53;4.90;;;4.50;99.90;;;;;;4960806;29;20470;-61
2021/01/14 10:39:50;;;;;;;9.50;4.67;;;4.50;99.90;;;;;;4987279;28;20439;-61
2021/01/14 10:42:33;;;;;;;7.37;4.30;;;4.50;99.90;;;;;;4969109;28;20503;-61
2021/01/14 10:45:01;;;;;;;7.37;4.73;;;4.40;99.90;;;;;;4984865;28;20611;-61
2021/01/14 10:47:28;;;;;;;6.67;4.60;;;4.30;99.90;;;;;;4983817;28;20440;-61
2021/01/14 10:49:55;;;;;;;6.90;4.60;;;4.40;99.90;;;;;;4962816;29;20479;-61
2021/01/14 10:52:22;;;;;;;7.30;3.93;;;4.40;99.90;;;;;;4969972;28;21019;-61
2021/01/14 10:57:52;;;;;;;8.60;5.83;;;4.40;99.90;;;;;;5106737;23;20505;-63
2021/01/14 11:00:21;;;;;;;5.47;4.50;;;4.30;99.90;;;;;;4995927;28;20816;-62
2021/01/14 11:02:48;;;;;;;6.77;5.07;;;4.20;99.90;;;;;;4991405;28;20490;-63
2021/01/14 11:05:15;;;;;;;11.30;5.70;;;4.10;99.90;;;;;;4991042;28;20451;-63
2021/01/14 11:07:42;;;;;;;6.10;4.33;;;4.00;99.90;;;;;;4991753;28;20461;-62
2021/01/14 11:10:10;;;;;;;7.83;5.83;;;4.00;99.90;;;;;;4991439;28;20493;-62
2021/01/14 11:13:03;;;;;;;12.23;5.87;;;3.90;99.90;;;;;;4988717;28;20451;-62
2021/01/14 11:15:30;;;;;;;12.07;6.37;;;4.00;99.90;;;;;;4995731;28;20438;-64
2021/01/14 11:18:00;;;;;;;8.67;5.40;;;4.00;99.90;;;;;;5007994;28;20461;-63
2021/01/14 11:20:27;;;;;;;7.00;5.30;;;4.10;99.90;;;;;;5009190;28;20434;-63
2021/01/14 11:22:54;;;;;;;9.33;6.00;;;4.10;99.90;;;;;;5009251;28;20446;-63
2021/01/14 11:25:20;;;;;;;8.20;5.53;;;4.10;99.90;;;;;;4994316;28;20513;-61
2021/01/14 11:27:47;;;;;;;8.83;5.17;;;4.20;99.90;;;;;;4989557;28;20447;-63
2021/01/14 11:30:16;;;;;;;7.57;5.00;;;4.30;99.90;;;;;;5005762;28;20923;-62
2021/01/14 11:32:43;;;;;;;9.07;6.20;;;4.30;99.90;;;;;;5009367;28;20481;-63
2021/01/14 11:35:11;;;;;;;8.87;5.20;;;4.30;99.90;;;;;;5009435;28;20452;-62
2021/01/14 11:37:38;;;;;;;6.17;4.97;;;4.30;99.90;;;;;;5010235;28;20477;-63
2021/01/14 11:40:06;;;;;;;5.83;4.80;;;4.30;99.90;;;;;;5009116;28;20464;-62
2021/01/14 11:42:33;;;;;;;7.40;5.10;;;4.40;99.90;;;;;;5008283;28;20457;-64
2021/01/14 11:44:59;;;;;;;8.17;6.00;;;4.50;99.90;;;;;;5006610;28;20516;-63
2021/01/14 11:47:27;;;;;;;8.53;5.23;;;4.60;99.90;;;;;;5008206;28;20477;-63
2021/01/14 11:49:54;;;;;;;6.93;5.50;;;4.70;99.90;;;;;;5007633;28;20504;-63
2021/01/14 11:52:20;;;;;;;8.13;5.63;;;4.60;99.90;;;;;;5009377;28;20960;-64
2021/01/14 11:54:48;;;;;;;11.13;5.60;;;4.60;99.90;;;;;;5010624;28;20464;-63
2021/01/14 11:57:15;;;;;;;10.43;6.13;;;4.50;99.90;;;;;;5011194;28;20485;-62
2021/01/14 11:59:42;;;;;;;9.57;6.97;;;4.40;99.90;;;;;;5013018;28;20458;-63
2021/01/14 12:02:09;;;;;;;8.80;6.00;;;4.30;99.90;;;;;;5013389;28;20446;-66
2021/01/14 12:04:39;;;;;;;9.37;5.80;;;4.30;99.90;;;;;;5013015;28;20785;-63
2021/01/14 12:07:06;;;;;;;14.80;7.10;;;4.20;99.90;;;;;;5012896;28;20453;-63
2021/01/14 12:09:32;;;;;;;10.80;6.93;;;4.10;99.90;;;;;;5012600;28;20446;-62
2021/01/14 12:11:59;;;;;;;9.10;6.47;;;4.10;99.90;;;;;;5012374;28;20482;-63
2021/01/14 12:14:26;;;;;;;9.10;6.60;;;4.10;99.90;;;;;;5013062;28;20449;-63
2021/01/14 12:16:53;;;;;;;9.97;6.37;;;4.10;99.90;;;;;;5013670;28;20473;-63
2021/01/14 12:19:19;;;;;;;11.30;5.60;;;4.00;99.90;;;;;;5012722;28;20461;-63
2021/01/14 12:22:00;;;;;;;10.10;7.33;;;4.00;99.90;;;;;;5012632;28;20446;-64
2021/01/14 12:24:26;;;;;;;10.83;6.07;;;4.00;99.90;;;;;;5017729;28;20450;-63
2021/01/14 12:26:54;;;;;;;8.73;4.70;;;4.00;99.90;;;;;;5019964;28;20453;-64
2021/01/14 12:29:21;;;;;;;12.57;7.30;;;4.10;99.90;;;;;;5015186;28;20450;-62
2021/01/14 12:31:48;;;;;;;13.20;7.53;;;4.00;99.90;;;;;;5013019;28;20488;-62
2021/01/14 12:34:14;;;;;;;8.50;5.97;;;4.00;99.90;;;;;;5012710;28;20453;-62
2021/01/14 12:36:53;;;;;;;10.57;6.10;;;4.00;99.90;;;;;;5018768;28;20441;-63
2021/01/14 12:39:20;;;;;;;12.57;6.90;;;4.00;99.90;;;;;;5019271;28;20919;-62
2021/01/14 12:41:47;;;;;;;7.97;5.97;;;4.00;99.90;;;;;;5019361;28;20442;-62
2021/01/14 12:44:13;;;;;;;10.83;6.40;;;4.00;99.90;;;;;;5012970;28;20854;-62
2021/01/14 12:46:42;;;;;;;10.13;6.10;;;3.90;99.90;;;;;;5007121;28;20429;-64
2021/01/14 12:49:10;;;;;;;8.83;5.70;;;3.80;99.90;;;;;;5007973;28;20461;-64
2021/01/14 12:51:38;;;;;;;10.80;5.13;;;3.80;99.90;;;;;;5001335;28;20540;-63
2021/01/14 12:54:06;;;;;;;11.23;6.73;;;3.80;99.90;;;;;;4993551;28;20458;-64
2021/01/14 12:56:33;;;;;;;8.90;5.60;;;3.80;99.90;;;;;;5007058;28;20473;-63
2021/01/14 12:59:00;;;;;;;8.53;5.90;;;3.80;99.90;;;;;;4997345;28;20442;-63
2021/01/14 13:01:28;;;;;;;11.37;5.50;;;3.80;99.90;;;;;;5000562;28;20442;-63
2021/01/14 13:03:59;;;;;;;10.80;6.40;;;3.80;99.90;;;;;;5002891;28;20454;-64
2021/01/14 13:06:27;;;;;;;9.10;6.27;;;3.80;99.90;;;;;;4998457;28;20471;-64
2021/01/14 13:08:54;;;;;;;8.00;5.93;;;3.80;99.90;;;;;;5002741;28;20458;-64
2021/01/14 13:13:57;;;;;;;7.87;5.07;;;3.90;99.90;;;;;;6039051;23;20416;-61